Time;durP1;ratioP1;P1;durP2;ratioP2;P2;SDS_P1;SDS_P2;PMS_P1;PMS_P2;Temp;Humidity;BMP_temperature;BMP_pressure;BME280_temperature;BME280_humidity;BME280_pressure;Samples;Min_cycle;Max_cycle;Signal;HPM_P1;HPM_P2
2022/10/17 00:00:00;;;;;;;;;;;;;;;;;;351541;28;916;-64
2022/10/17 00:00:10;;;;;;;;;;;;;;;;;;351525;28;968;-64
2022/10/17 00:00:20;;;;;;;;;;;;;;;;;;351513;28;936;-64
2022/10/17 00:00:31;;;;;;;;;;;;;;;;;;351497;28;956;-64
2022/10/17 00:00:41;;;;;;;;;;;;;;;;;;351524;28;769;-64
2022/10/17 00:00:51;;;;;;;;;;;;;;;;;;351474;28;944;-64
2022/10/17 00:01:01;;;;;;;;;;;;;;;;;;351567;28;865;-64
2022/10/17 00:01:12;;;;;;;;;;;;;;;;;;351527;28;1074;-64
2022/10/17 00:01:22;;;;;;;;;;;;;;;;;;351519;28;841;-64
2022/10/17 00:01:32;;;;;;;;;;;;;;;;;;351575;28;975;-63
2022/10/17 00:01:42;;;;;;;;;;;;;;;;;;351483;28;913;-64
2022/10/17 00:01:53;;;;;;;;;;;;;;;;;;351544;28;793;-63
2022/10/17 00:02:03;;;;;;;;;;;;;;;;;;351525;28;975;-64
2022/10/17 00:02:13;;;;;;;;;;;;;;;;;;351551;28;1034;-64
2022/10/17 00:02:23;;;;;;;;;;;;;;;;;;351417;28;1378;-64
2022/10/17 00:02:33;;;;;;;;;;;;;;;;;;351514;28;917;-64
2022/10/17 00:02:43;;;;;;;;;;;;;;;;;;351567;28;907;-64
2022/10/17 00:02:55;;;;;;;;;;;;;;;;;;351425;28;917;-64
2022/10/17 00:03:06;;;;;;;;;;;;;;;;;;351516;28;841;-63
2022/10/17 00:03:16;;;;;;;;;;;;;;;;;;351525;28;868;-64
2022/10/17 00:03:26;;;;;;;;;;;;;;;;;;351465;28;996;-63
2022/10/17 00:03:37;;;;;;;;;;;;;;;;;;351507;28;857;-64
2022/10/17 00:03:47;;;;;;;;;;;;;;;;;;351521;28;849;-63
2022/10/17 00:03:58;;;;;;;;;;;;;;;;;;351483;28;984;-64
2022/10/17 00:04:08;;;;;;;;;;;;;;;;;;351528;28;908;-63
2022/10/17 00:04:18;;;;;;;;;;;;;;;;;;351537;28;968;-63
2022/10/17 00:04:28;;;;;;;;;;;;;;;;;;351523;28;861;-64
2022/10/17 00:04:38;;;;;;;;;;;;;;;;;;351538;28;816;-63
2022/10/17 00:04:49;;;;;;;;;;;;;;;;;;351468;28;905;-64
2022/10/17 00:04:59;;;;;;;;;;;;;;;;;;351490;28;983;-63
2022/10/17 00:05:10;;;;;;;;;;;;;;;;;;351516;28;952;-63
2022/10/17 00:05:21;;;;;;;;;;;;;;;;;;351495;28;936;-64
2022/10/17 00:05:31;;;;;;;;;;;;;;;;;;351499;28;1055;-64
2022/10/17 00:05:43;;;;;;;;;;;;;;;;;;351456;28;928;-64
2022/10/17 00:05:53;;;;;;;;;;;;;;;;;;350734;28;2091;-63
2022/10/17 00:06:08;;;;;;;;;;;;;;;;;;350190;28;1546;-63
2022/10/17 00:06:18;;;;;;;;;;;;;;;;;;350108;28;928;-63
2022/10/17 00:06:29;;;;;;;;;;;;;;;;;;349920;28;1949;-63
2022/10/17 00:06:39;;;;;;;;;;;;;;;;;;352304;28;912;-64
2022/10/17 00:06:49;;;;;;;;;;;;;;;;;;352939;28;841;-63
2022/10/17 00:06:59;;;;;;;;;;;;;;;;;;352904;28;971;-63
2022/10/17 00:07:09;;;;;;;;;;;;;;;;;;352832;28;1039;-63
2022/10/17 00:07:20;;;;;;;;;;;;;;;;;;352766;28;1538;-63
2022/10/17 00:07:30;;;;;;;;;;;;;;;;;;351256;28;1567;-64
2022/10/17 00:07:40;;;;;;;;;;;;;;;;;;351458;28;1502;-63
2022/10/17 00:07:51;;;;;;;;;;;;;;;;;;350787;28;2031;-63
2022/10/17 00:08:01;;;;;;;;;;;;;;;;;;351490;28;1688;-64
2022/10/17 00:08:12;;;;;;;;;;;;;;;;;;352939;28;908;-64
2022/10/17 00:08:22;;;;;;;;;;;;;;;;;;352860;28;892;-64
2022/10/17 00:08:32;;;;;;;;;;;;;;;;;;352893;28;995;-64
2022/10/17 00:08:43;;;;;;;;;;;;;;;;;;352940;28;976;-64
2022/10/17 00:08:53;;;;;;;;;;;;;;;;;;352878;28;949;-64
2022/10/17 00:09:03;;;;;;;;;;;;;;;;;;352908;28;968;-64
2022/10/17 00:09:13;;;;;;;;;;;;;;;;;;352834;28;912;-63
2022/10/17 00:09:23;;;;;;;;;;;;;;;;;;351720;28;1471;-63
2022/10/17 00:09:33;;;;;;;;;;;;;;;;;;351540;28;790;-63
2022/10/17 00:09:44;;;;;;;;;;;;;;;;;;351569;28;968;-63
2022/10/17 00:09:54;;;;;;;;;;;;;;;;;;351500;28;932;-64
2022/10/17 00:10:05;;;;;;;;;;;;;;;;;;351484;28;912;-63
2022/10/17 00:10:15;;;;;;;;;;;;;;;;;;351476;28;933;-63
2022/10/17 00:10:26;;;;;;;;;;;;;;;;;;351494;28;988;-64
2022/10/17 00:10:36;;;;;;;;;;;;;;;;;;351460;28;996;-64
2022/10/17 00:10:57;;;;;;;;;;;;;;;;;;351519;28;908;-64
2022/10/17 00:11:11;;;;;;;;;;;;;;;;;;351543;28;781;-63
2022/10/17 00:11:22;;;;;;;;;;;;;;;;;;351485;28;908;-64
2022/10/17 00:11:32;;;;;;;;;;;;;;;;;;351503;28;975;-64
2022/10/17 00:11:43;;;;;;;;;;;;;;;;;;351469;28;777;-64
2022/10/17 00:11:53;;;;;;;;;;;;;;;;;;351549;28;943;-63
2022/10/17 00:12:03;;;;;;;;;;;;;;;;;;351440;28;904;-64
2022/10/17 00:12:13;;;;;;;;;;;;;;;;;;351523;28;920;-64
2022/10/17 00:12:23;;;;;;;;;;;;;;;;;;351495;28;908;-64
2022/10/17 00:12:34;;;;;;;;;;;;;;;;;;351520;28;976;-63
2022/10/17 00:12:44;;;;;;;;;;;;;;;;;;351781;28;1314;-64
2022/10/17 00:12:54;;;;;;;;;;;;;;;;;;352832;28;901;-63
2022/10/17 00:13:05;;;;;;;;;;;;;;;;;;352880;28;864;-63
2022/10/17 00:13:15;;;;;;;;;;;;;;;;;;352953;28;987;-63
2022/10/17 00:13:25;;;;;;;;;;;;;;;;;;352803;28;893;-63
2022/10/17 00:13:36;;;;;;;;;;;;;;;;;;352950;28;944;-63
2022/10/17 00:13:47;;;;;;;;;;;;;;;;;;352869;28;874;-63
2022/10/17 00:13:57;;;;;;;;;;;;;;;;;;352951;28;995;-63
2022/10/17 00:14:07;;;;;;;;;;;;;;;;;;352845;28;999;-63
2022/10/17 00:14:17;;;;;;;;;;;;;;;;;;352952;28;775;-64
2022/10/17 00:14:27;;;;;;;;;;;;;;;;;;352854;28;905;-63
2022/10/17 00:14:38;;;;;;;;;;;;;;;;;;350728;28;1365;-63
2022/10/17 00:14:48;;;;;;;;;;;;;;;;;;351504;28;960;-63
2022/10/17 00:14:58;;;;;;;;;;;;;;;;;;351525;28;932;-64
2022/10/17 00:15:10;;;;;;;;;;;;;;;;;;351429;28;976;-63
2022/10/17 00:15:20;;;;;;;;;;;;;;;;;;351551;28;975;-63
2022/10/17 00:15:31;;;;;;;;;;;;;;;;;;351492;28;873;-63
2022/10/17 00:15:42;;;;;;;;;;;;;;;;;;351516;28;758;-63
2022/10/17 00:15:52;;;;;;;;;;;;;;;;;;351479;28;972;-64
2022/10/17 00:16:03;;;;;;;;;;;;;;;;;;351496;28;904;-64
2022/10/17 00:16:14;;;;;;;;;;;;;;;;;;351522;28;999;-63
2022/10/17 00:16:25;;;;;;;;;;;;;;;;;;351477;28;801;-63
2022/10/17 00:16:36;;;;;;;;;;;;;;;;;;351517;28;975;-64
2022/10/17 00:16:46;;;;;;;;;;;;;;;;;;351476;28;944;-64
2022/10/17 00:16:56;;;;;;;;;;;;;;;;;;351478;28;1138;-63
2022/10/17 00:17:06;;;;;;;;;;;;;;;;;;351476;28;841;-63
2022/10/17 00:17:17;;;;;;;;;;;;;;;;;;351507;28;921;-63
2022/10/17 00:17:27;;;;;;;;;;;;;;;;;;351474;28;956;-64
2022/10/17 00:17:37;;;;;;;;;;;;;;;;;;351406;28;1713;-64
2022/10/17 00:17:48;;;;;;;;;;;;;;;;;;351524;28;766;-64
2022/10/17 00:17:58;;;;;;;;;;;;;;;;;;351521;28;909;-63
2022/10/17 00:18:08;;;;;;;;;;;;;;;;;;351427;28;870;-63
2022/10/17 00:18:18;;;;;;;;;;;;;;;;;;351501;28;924;-64
2022/10/17 00:18:29;;;;;;;;;;;;;;;;;;351451;28;826;-63
2022/10/17 00:18:39;;;;;;;;;;;;;;;;;;351516;28;984;-63
2022/10/17 00:18:49;;;;;;;;;;;;;;;;;;351494;28;991;-64
2022/10/17 00:19:00;;;;;;;;;;;;;;;;;;351490;28;857;-64
2022/10/17 00:19:10;;;;;;;;;;;;;;;;;;351502;28;928;-64
2022/10/17 00:19:20;;;;;;;;;;;;;;;;;;351480;28;933;-64
2022/10/17 00:19:30;;;;;;;;;;;;;;;;;;351393;28;1910;-63
2022/10/17 00:19:42;;;;;;;;;;;;;;;;;;351455;28;979;-63
2022/10/17 00:19:52;;;;;;;;;;;;;;;;;;351435;28;944;-63
2022/10/17 00:20:02;;;;;;;;;;;;;;;;;;351520;28;928;-63
2022/10/17 00:20:13;;;;;;;;;;;;;;;;;;351445;28;971;-63
2022/10/17 00:20:24;;;;;;;;;;;;;;;;;;351462;28;781;-64
2022/10/17 00:20:34;;;;;;;;;;;;;;;;;;351464;28;928;-63
2022/10/17 00:20:44;;;;;;;;;;;;;;;;;;351419;28;1310;-63
2022/10/17 00:20:55;;;;;;;;;;;;;;;;;;351500;28;928;-64
2022/10/17 00:21:05;;;;;;;;;;;;;;;;;;351459;28;1068;-64
2022/10/17 00:21:16;;;;;;;;;;;;;;;;;;351443;28;956;-63
2022/10/17 00:21:27;;;;;;;;;;;;;;;;;;351482;28;983;-63
2022/10/17 00:21:37;;;;;;;;;;;;;;;;;;351437;28;932;-63
2022/10/17 00:21:48;;;;;;;;;;;;;;;;;;351417;28;987;-63
2022/10/17 00:21:58;;;;;;;;;;;;;;;;;;351470;28;984;-64
2022/10/17 00:22:08;;;;;;;;;;;;;;;;;;351492;28;956;-64
2022/10/17 00:22:18;;;;;;;;;;;;;;;;;;351437;28;846;-64
2022/10/17 00:22:28;;;;;;;;;;;;;;;;;;351492;28;953;-63
2022/10/17 00:22:39;;;;;;;;;;;;;;;;;;351488;28;995;-64
2022/10/17 00:22:49;;;;;;;;;;;;;;;;;;351483;28;944;-64
2022/10/17 00:22:59;;;;;;;;;;;;;;;;;;351446;28;1004;-64
2022/10/17 00:23:09;;;;;;;;;;;;;;;;;;351514;28;905;-63
2022/10/17 00:23:19;;;;;;;;;;;;;;;;;;351416;28;940;-64
2022/10/17 00:23:30;;;;;;;;;;;;;;;;;;351469;28;972;-64
2022/10/17 00:23:40;;;;;;;;;;;;;;;;;;351494;28;932;-64
2022/10/17 00:23:50;;;;;;;;;;;;;;;;;;351424;28;1011;-63
2022/10/17 00:24:00;;;;;;;;;;;;;;;;;;351481;28;987;-64
2022/10/17 00:24:11;;;;;;;;;;;;;;;;;;351448;28;840;-64
2022/10/17 00:24:21;;;;;;;;;;;;;;;;;;351459;28;909;-64
2022/10/17 00:24:31;;;;;;;;;;;;;;;;;;351459;28;905;-64
2022/10/17 00:24:41;;;;;;;;;;;;;;;;;;351478;28;798;-63
2022/10/17 00:24:51;;;;;;;;;;;;;;;;;;351481;28;905;-64
2022/10/17 00:25:02;;;;;;;;;;;;;;;;;;351447;28;881;-64
2022/10/17 00:25:12;;;;;;;;;;;;;;;;;;351364;28;1468;-63
2022/10/17 00:25:22;;;;;;;;;;;;;;;;;;351449;28;995;-63
2022/10/17 00:25:32;;;;;;;;;;;;;;;;;;351485;28;941;-64
2022/10/17 00:25:43;;;;;;;;;;;;;;;;;;351481;28;944;-64
2022/10/17 00:25:56;;;;;;;;;;;;;;;;;;351386;28;979;-64
2022/10/17 00:26:06;;;;;;;;;;;;;;;;;;351506;28;790;-64
2022/10/17 00:26:17;;;;;;;;;;;;;;;;;;351276;28;1126;-64
2022/10/17 00:26:28;;;;;;;;;;;;;;;;;;351456;28;925;-64
2022/10/17 00:26:38;;;;;;;;;;;;;;;;;;351444;28;1023;-64
2022/10/17 00:26:48;;;;;;;;;;;;;;;;;;351510;28;924;-64
2022/10/17 00:26:59;;;;;;;;;;;;;;;;;;350946;28;1395;-64
2022/10/17 00:27:09;;;;;;;;;;;;;;;;;;350088;28;1527;-64
2022/10/17 00:27:19;;;;;;;;;;;;;;;;;;349844;28;1136;-63
2022/10/17 00:27:29;;;;;;;;;;;;;;;;;;350144;28;817;-64
2022/10/17 00:27:40;;;;;;;;;;;;;;;;;;350266;28;1537;-64
2022/10/17 00:27:50;;;;;;;;;;;;;;;;;;350559;28;1661;-64
2022/10/17 00:28:00;;;;;;;;;;;;;;;;;;351329;28;1548;-63
2022/10/17 00:28:11;;;;;;;;;;;;;;;;;;351446;28;908;-64
2022/10/17 00:28:21;;;;;;;;;;;;;;;;;;351164;28;1738;-64
2022/10/17 00:28:32;;;;;;;;;;;;;;;;;;351472;28;904;-64
2022/10/17 00:28:45;;;;;;;;;;;;;;;;;;351459;28;979;-64
2022/10/17 00:28:55;;;;;;;;;;;;;;;;;;351455;28;875;-64
2022/10/17 00:29:05;;;;;;;;;;;;;;;;;;350049;28;1425;-64
2022/10/17 00:29:15;;;;;;;;;;;;;;;;;;350069;28;846;-64
2022/10/17 00:29:26;;;;;;;;;;;;;;;;;;350036;28;976;-64
2022/10/17 00:29:36;;;;;;;;;;;;;;;;;;350075;28;1019;-64
2022/10/17 00:29:49;;;;;;;;;;;;;;;;;;351324;28;1592;-64
2022/10/17 00:29:59;;;;;;;;;;;;;;;;;;351436;28;852;-63
2022/10/17 00:30:12;;;;;;;;;;;;;;;;;;350325;28;1378;-64
2022/10/17 00:30:22;;;;;;;;;;;;;;;;;;349964;28;1351;-64
2022/10/17 00:30:32;;;;;;;;;;;;;;;;;;351121;28;774;-64
2022/10/17 00:30:42;;;;;;;;;;;;;;;;;;351479;28;963;-64
2022/10/17 00:30:56;;;;;;;;;;;;;;;;;;351439;28;813;-64
2022/10/17 00:31:06;;;;;;;;;;;;;;;;;;351499;28;845;-64
2022/10/17 00:31:18;;;;;;;;;;;;;;;;;;351479;28;908;-64
2022/10/17 00:31:28;;;;;;;;;;;;;;;;;;351433;28;939;-64
2022/10/17 00:31:38;;;;;;;;;;;;;;;;;;351456;28;928;-63
2022/10/17 00:31:48;;;;;;;;;;;;;;;;;;351445;28;1074;-63
2022/10/17 00:31:58;;;;;;;;;;;;;;;;;;351461;28;822;-64
2022/10/17 00:32:08;;;;;;;;;;;;;;;;;;351346;28;1055;-64
2022/10/17 00:32:19;;;;;;;;;;;;;;;;;;351464;28;804;-63
2022/10/17 00:32:29;;;;;;;;;;;;;;;;;;351367;28;1064;-63
2022/10/17 00:32:39;;;;;;;;;;;;;;;;;;351291;28;1139;-64
2022/10/17 00:32:50;;;;;;;;;;;;;;;;;;351519;28;944;-63
2022/10/17 00:33:00;;;;;;;;;;;;;;;;;;351440;28;895;-64
2022/10/17 00:33:10;;;;;;;;;;;;;;;;;;351469;28;797;-64
2022/10/17 00:33:20;;;;;;;;;;;;;;;;;;351529;28;896;-64
2022/10/17 00:33:31;;;;;;;;;;;;;;;;;;351412;28;968;-64
2022/10/17 00:33:42;;;;;;;;;;;;;;;;;;351506;28;948;-63
2022/10/17 00:33:53;;;;;;;;;;;;;;;;;;351463;28;919;-64
2022/10/17 00:34:03;;;;;;;;;;;;;;;;;;351348;28;1002;-64
2022/10/17 00:34:13;;;;;;;;;;;;;;;;;;351208;28;1054;-63
2022/10/17 00:34:24;;;;;;;;;;;;;;;;;;351309;28;824;-64
2022/10/17 00:34:34;;;;;;;;;;;;;;;;;;351427;28;925;-64
2022/10/17 00:34:45;;;;;;;;;;;;;;;;;;351519;28;1529;-64
2022/10/17 00:34:56;;;;;;;;;;;;;;;;;;351456;28;1081;-64
2022/10/17 00:35:07;;;;;;;;;;;;;;;;;;351528;28;1078;-64
2022/10/17 00:35:17;;;;;;;;;;;;;;;;;;351418;28;1007;-64
2022/10/17 00:35:27;;;;;;;;;;;;;;;;;;351466;28;912;-64
2022/10/17 00:35:37;;;;;;;;;;;;;;;;;;351474;28;1086;-64
2022/10/17 00:35:47;;;;;;;;;;;;;;;;;;351491;28;964;-64
2022/10/17 00:36:05;;;;;;;;;;;;;;;;;;351196;28;2083;-64
2022/10/17 00:36:17;;;;;;;;;;;;;;;;;;352070;28;1142;-63
2022/10/17 00:36:28;;;;;;;;;;;;;;;;;;352850;28;990;-64
2022/10/17 00:36:38;;;;;;;;;;;;;;;;;;352896;28;924;-64
2022/10/17 00:36:48;;;;;;;;;;;;;;;;;;352891;28;979;-63
2022/10/17 00:36:58;;;;;;;;;;;;;;;;;;352718;28;1147;-63
2022/10/17 00:37:08;;;;;;;;;;;;;;;;;;350579;28;1520;-64
2022/10/17 00:37:19;;;;;;;;;;;;;;;;;;352870;28;923;-64
2022/10/17 00:37:29;;;;;;;;;;;;;;;;;;351536;28;1487;-64
2022/10/17 00:37:39;;;;;;;;;;;;;;;;;;351472;28;979;-64
2022/10/17 00:37:50;;;;;;;;;;;;;;;;;;351529;28;916;-64
2022/10/17 00:38:00;;;;;;;;;;;;;;;;;;351424;28;939;-63
2022/10/17 00:38:10;;;;;;;;;;;;;;;;;;351567;28;839;-63
2022/10/17 00:38:20;;;;;;;;;;;;;;;;;;351487;28;1022;-64
2022/10/17 00:38:31;;;;;;;;;;;;;;;;;;351433;28;951;-64
2022/10/17 00:38:42;;;;;;;;;;;;;;;;;;351502;28;991;-64
2022/10/17 00:38:56;;;;;;;;;;;;;;;;;;351432;28;1042;-64
2022/10/17 00:39:08;;;;;;;;;;;;;;;;;;351485;28;1633;-63
2022/10/17 00:39:18;;;;;;;;;;;;;;;;;;352886;28;1030;-64
2022/10/17 00:39:28;;;;;;;;;;;;;;;;;;352751;28;1905;-63
2022/10/17 00:39:38;;;;;;;;;;;;;;;;;;352891;28;979;-64
2022/10/17 00:39:49;;;;;;;;;;;;;;;;;;352875;28;920;-64
2022/10/17 00:39:59;;;;;;;;;;;;;;;;;;352832;28;1047;-63
2022/10/17 00:40:09;;;;;;;;;;;;;;;;;;352907;28;932;-63
2022/10/17 00:40:20;;;;;;;;;;;;;;;;;;352869;28;999;-64
2022/10/17 00:40:30;;;;;;;;;;;;;;;;;;351664;28;1447;-63
2022/10/17 00:40:40;;;;;;;;;;;;;;;;;;351468;28;948;-64
2022/10/17 00:40:50;;;;;;;;;;;;;;;;;;351493;28;841;-63
2022/10/17 00:41:01;;;;;;;;;;;;;;;;;;351513;28;963;-63
2022/10/17 00:41:13;;;;;;;;;;;;;;;;;;351451;28;932;-64
2022/10/17 00:41:26;;;;;;;;;;;;;;;;;;351410;28;984;-64
2022/10/17 00:41:36;;;;;;;;;;;;;;;;;;351427;28;979;-64
2022/10/17 00:41:46;;;;;;;;;;;;;;;;;;351452;28;932;-63
2022/10/17 00:41:56;;;;;;;;;;;;;;;;;;351515;28;568;-64
2022/10/17 00:42:09;;;;;;;;;;;;;;;;;;351529;28;840;-64
2022/10/17 00:42:19;;;;;;;;;;;;;;;;;;351430;28;956;-63
2022/10/17 00:42:29;;;;;;;;;;;;;;;;;;351461;28;845;-64
2022/10/17 00:42:40;;;;;;;;;;;;;;;;;;351399;28;904;-64
2022/10/17 00:42:51;;;;;;;;;;;;;;;;;;351484;28;971;-63
2022/10/17 00:43:02;;;;;;;;;;;;;;;;;;351476;28;916;-63
2022/10/17 00:43:16;;;;;;;;;;;;;;;;;;351451;28;832;-64
2022/10/17 00:43:28;;;;;;;;;;;;;;;;;;351429;28;1042;-64
2022/10/17 00:43:57;;;;;;;;;;;;;;;;;;351441;28;936;-64
2022/10/17 00:44:25;;;;;;;;;;;;;;;;;;351469;28;1050;-63
2022/10/17 00:44:35;;;;;;;;;;;;;;;;;;350479;28;1681;-64
2022/10/17 00:44:46;;;;;;;;;;;;;;;;;;349953;28;956;-63
2022/10/17 00:44:59;;;;;;;;;;;;;;;;;;350247;28;1383;-64
2022/10/17 00:45:20;;;;;;;;;;;;;;;;;;351386;28;865;-64
2022/10/17 00:45:30;;;;;;;;;;;;;;;;;;351446;28;1045;-64
2022/10/17 00:45:40;;;;;;;;;;;;;;;;;;351384;28;952;-64
2022/10/17 00:45:51;;;;;;;;;;;;;;;;;;351457;28;869;-64
2022/10/17 00:46:01;;;;;;;;;;;;;;;;;;351447;28;920;-64
2022/10/17 00:46:11;;;;;;;;;;;;;;;;;;351454;28;936;-64
2022/10/17 00:46:23;;;;;;;;;;;;;;;;;;351419;28;849;-64
2022/10/17 00:46:34;;;;;;;;;;;;;;;;;;351410;28;928;-64
2022/10/17 00:46:44;;;;;;;;;;;;;;;;;;351211;28;990;-63
2022/10/17 00:47:00;;;;;;;;;;;;;;;;;;351478;28;900;-64
2022/10/17 00:47:13;;;;;;;;;;;;;;;;;;351431;28;916;-63
2022/10/17 00:47:23;;;;;;;;;;;;;;;;;;351472;28;983;-64
2022/10/17 00:47:34;;;;;;;;;;;;;;;;;;351422;28;944;-63
2022/10/17 00:47:47;;;;;;;;;;;;;;;;;;351442;28;1003;-63
2022/10/17 00:47:59;;;;;;;;;;;;;;;;;;351388;28;794;-64
2022/10/17 00:48:10;;;;;;;;;;;;;;;;;;351480;28;916;-64
2022/10/17 00:48:23;;;;;;;;;;;;;;;;;;351495;28;912;-64
2022/10/17 00:48:33;;;;;;;;;;;;;;;;;;351491;28;857;-63
2022/10/17 00:48:44;;;;;;;;;;;;;;;;;;351378;28;924;-64
2022/10/17 00:48:55;;;;;;;;;;;;;;;;;;351420;28;1000;-64
2022/10/17 00:49:06;;;;;;;;;;;;;;;;;;351418;28;921;-63
2022/10/17 00:49:17;;;;;;;;;;;;;;;;;;351427;28;975;-64
2022/10/17 00:49:30;;;;;;;;;;;;;;;;;;351405;28;1011;-64
2022/10/17 00:49:40;;;;;;;;;;;;;;;;;;351451;28;489;-64
2022/10/17 00:49:50;;;;;;;;;;;;;;;;;;351455;28;983;-64
2022/10/17 00:50:01;;;;;;;;;;;;;;;;;;351467;28;893;-63
2022/10/17 00:50:12;;;;;;;;;;;;;;;;;;351402;28;770;-63
2022/10/17 00:50:23;;;;;;;;;;;;;;;;;;351462;28;849;-64
2022/10/17 00:50:34;;;;;;;;;;;;;;;;;;351339;28;1186;-63
2022/10/17 00:50:47;;;;;;;;;;;;;;;;;;351469;28;758;-64
2022/10/17 00:50:58;;;;;;;;;;;;;;;;;;351377;28;1169;-64
2022/10/17 00:51:08;;;;;;;;;;;;;;;;;;351425;28;1012;-64
2022/10/17 00:51:19;;;;;;;;;;;;;;;;;;351447;28;999;-63
2022/10/17 00:51:33;;;;;;;;;;;;;;;;;;351429;28;1019;-64
2022/10/17 00:51:43;;;;;;;;;;;;;;;;;;351361;28;1005;-64
2022/10/17 00:51:55;;;;;;;;;;;;;;;;;;351453;28;845;-64
2022/10/17 00:52:10;;;;;;;;;;;;;;;;;;351450;28;1003;-63
2022/10/17 00:52:23;;;;;;;;;;;;;;;;;;351399;28;995;-63
2022/10/17 00:52:33;;;;;;;;;;;;;;;;;;351448;28;952;-63
2022/10/17 00:52:44;;;;;;;;;;;;;;;;;;351446;28;1022;-64
2022/10/17 00:52:57;;;;;;;;;;;;;;;;;;351357;28;936;-64
2022/10/17 00:53:08;;;;;;;;;;;;;;;;;;351362;28;960;-64
2022/10/17 00:53:18;;;;;;;;;;;;;;;;;;351446;28;932;-64
2022/10/17 00:53:28;;;;;;;;;;;;;;;;;;351433;28;929;-64
2022/10/17 00:53:39;;;;;;;;;;;;;;;;;;351391;28;778;-64
2022/10/17 00:53:50;;;;;;;;;;;;;;;;;;351391;28;979;-64
2022/10/17 00:54:01;;;;;;;;;;;;;;;;;;351387;28;988;-63
2022/10/17 00:54:13;;;;;;;;;;;;;;;;;;351438;28;995;-64
2022/10/17 00:54:26;;;;;;;;;;;;;;;;;;351484;28;988;-64
2022/10/17 00:54:39;;;;;;;;;;;;;;;;;;351406;28;984;-63
2022/10/17 00:54:53;;;;;;;;;;;;;;;;;;351440;28;936;-64
2022/10/17 00:55:23;;;;;;;;;;;;;;;;;;351437;28;1000;-64
2022/10/17 00:55:36;;;;;;;;;;;;;;;;;;350811;28;1048;-64
2022/10/17 00:55:49;;;;;;;;;;;;;;;;;;351440;28;980;-63
2022/10/17 00:56:00;;;;;;;;;;;;;;;;;;351422;28;1035;-64
2022/10/17 00:56:10;;;;;;;;;;;;;;;;;;351424;28;1020;-64
2022/10/17 00:56:20;;;;;;;;;;;;;;;;;;351427;28;786;-64
2022/10/17 00:56:31;;;;;;;;;;;;;;;;;;351461;28;1102;-64
2022/10/17 00:56:41;;;;;;;;;;;;;;;;;;351401;28;944;-64
2022/10/17 00:56:52;;;;;;;;;;;;;;;;;;351444;28;1020;-63
2022/10/17 00:57:02;;;;;;;;;;;;;;;;;;351429;28;940;-64
2022/10/17 00:57:13;;;;;;;;;;;;;;;;;;351322;28;960;-64
2022/10/17 00:57:24;;;;;;;;;;;;;;;;;;351445;28;1016;-64
2022/10/17 00:57:35;;;;;;;;;;;;;;;;;;351450;28;1031;-63
2022/10/17 00:57:45;;;;;;;;;;;;;;;;;;351338;28;1670;-64
2022/10/17 00:57:56;;;;;;;;;;;;;;;;;;350019;28;971;-64
2022/10/17 00:58:07;;;;;;;;;;;;;;;;;;350001;28;999;-64
2022/10/17 00:58:18;;;;;;;;;;;;;;;;;;350098;28;924;-63
2022/10/17 00:58:28;;;;;;;;;;;;;;;;;;350054;28;865;-64
2022/10/17 00:58:38;;;;;;;;;;;;;;;;;;350061;28;949;-63
2022/10/17 00:58:49;;;;;;;;;;;;;;;;;;350044;28;994;-64
2022/10/17 00:58:59;;;;;;;;;;;;;;;;;;349955;28;1300;-63
2022/10/17 00:59:11;;;;;;;;;;;;;;;;;;350038;28;968;-64
2022/10/17 00:59:22;;;;;;;;;;;;;;;;;;350054;28;873;-63
2022/10/17 00:59:33;;;;;;;;;;;;;;;;;;349437;28;1967;-64
2022/10/17 00:59:46;;;;;;;;;;;;;;;;;;350106;28;916;-63
2022/10/17 00:59:57;;;;;;;;;;;;;;;;;;350018;28;837;-63
2022/10/17 01:00:08;;;;;;;;;;;;;;;;;;350052;28;1012;-63
2022/10/17 01:00:19;;;;;;;;;;;;;;;;;;349612;28;1162;-63
2022/10/17 01:00:29;;;;;;;;;;;;;;;;;;350073;28;853;-64
2022/10/17 01:00:40;;;;;;;;;;;;;;;;;;350070;28;841;-64
2022/10/17 01:00:50;;;;;;;;;;;;;;;;;;349973;28;1003;-63
2022/10/17 01:01:01;;;;;;;;;;;;;;;;;;350007;28;1081;-63
2022/10/17 01:01:11;;;;;;;;;;;;;;;;;;350035;28;917;-63
2022/10/17 01:01:22;;;;;;;;;;;;;;;;;;349970;28;999;-63
2022/10/17 01:01:32;;;;;;;;;;;;;;;;;;350110;28;837;-63
2022/10/17 01:01:47;;;;;;;;;;;;;;;;;;349995;28;912;-64
2022/10/17 01:02:03;;;;;;;;;;;;;;;;;;350042;28;741;-63
2022/10/17 01:02:16;;;;;;;;;;;;;;;;;;350086;28;971;-63
2022/10/17 01:02:26;;;;;;;;;;;;;;;;;;350067;28;853;-63
2022/10/17 01:02:36;;;;;;;;;;;;;;;;;;350016;28;913;-64
2022/10/17 01:02:47;;;;;;;;;;;;;;;;;;350026;28;960;-64
2022/10/17 01:02:57;;;;;;;;;;;;;;;;;;350245;28;1377;-64
2022/10/17 01:03:07;;;;;;;;;;;;;;;;;;351475;28;798;-63
2022/10/17 01:03:18;;;;;;;;;;;;;;;;;;351414;28;947;-63
2022/10/17 01:03:28;;;;;;;;;;;;;;;;;;351389;28;932;-64
2022/10/17 01:03:38;;;;;;;;;;;;;;;;;;351481;28;813;-63
2022/10/17 01:03:49;;;;;;;;;;;;;;;;;;351477;28;900;-63
2022/10/17 01:03:59;;;;;;;;;;;;;;;;;;351434;28;853;-63
2022/10/17 01:04:09;;;;;;;;;;;;;;;;;;351398;28;944;-63
2022/10/17 01:04:20;;;;;;;;;;;;;;;;;;351385;28;896;-63
2022/10/17 01:04:30;;;;;;;;;;;;;;;;;;351435;28;928;-64
2022/10/17 01:04:42;;;;;;;;;;;;;;;;;;351420;28;949;-64
2022/10/17 01:04:55;;;;;;;;;;;;;;;;;;351391;28;940;-64
2022/10/17 01:05:05;;;;;;;;;;;;;;;;;;351407;28;933;-64
2022/10/17 01:05:17;;;;;;;;;;;;;;;;;;351409;28;833;-64
2022/10/17 01:05:27;;;;;;;;;;;;;;;;;;351391;28;971;-63
2022/10/17 01:05:38;;;;;;;;;;;;;;;;;;350377;28;1992;-63
2022/10/17 01:05:48;;;;;;;;;;;;;;;;;;350207;28;1688;-64
2022/10/17 01:05:59;;;;;;;;;;;;;;;;;;351440;28;1224;-63
2022/10/17 01:06:09;;;;;;;;;;;;;;;;;;352640;28;825;-63
2022/10/17 01:06:19;;;;;;;;;;;;;;;;;;352809;28;876;-64
2022/10/17 01:06:29;;;;;;;;;;;;;;;;;;352896;28;837;-63
2022/10/17 01:06:39;;;;;;;;;;;;;;;;;;352873;28;872;-63
2022/10/17 01:06:50;;;;;;;;;;;;;;;;;;352782;28;987;-64
2022/10/17 01:07:00;;;;;;;;;;;;;;;;;;352885;28;769;-64
2022/10/17 01:07:10;;;;;;;;;;;;;;;;;;352856;28;861;-63
2022/10/17 01:07:21;;;;;;;;;;;;;;;;;;352808;28;908;-64
2022/10/17 01:07:31;;;;;;;;;;;;;;;;;;351420;28;1530;-64
2022/10/17 01:07:42;;;;;;;;;;;;;;;;;;351477;28;864;-64
2022/10/17 01:07:53;;;;;;;;;;;;;;;;;;351388;28;948;-64
2022/10/17 01:08:04;;;;;;;;;;;;;;;;;;351467;28;1003;-64
2022/10/17 01:08:14;;;;;;;;;;;;;;;;;;351357;28;1031;-63
2022/10/17 01:08:25;;;;;;;;;;;;;;;;;;351392;28;956;-64
2022/10/17 01:08:35;;;;;;;;;;;;;;;;;;351495;28;830;-63
2022/10/17 01:08:45;;;;;;;;;;;;;;;;;;351438;28;921;-64
2022/10/17 01:08:56;;;;;;;;;;;;;;;;;;351454;28;972;-64
2022/10/17 01:09:06;;;;;;;;;;;;;;;;;;351471;28;995;-63
2022/10/17 01:09:16;;;;;;;;;;;;;;;;;;351397;28;916;-64
2022/10/17 01:09:26;;;;;;;;;;;;;;;;;;351480;28;916;-63
2022/10/17 01:09:37;;;;;;;;;;;;;;;;;;351398;28;786;-63
2022/10/17 01:09:48;;;;;;;;;;;;;;;;;;351466;28;908;-63
2022/10/17 01:09:58;;;;;;;;;;;;;;;;;;351446;28;991;-64
2022/10/17 01:10:09;;;;;;;;;;;;;;;;;;351369;28;994;-64
2022/10/17 01:10:20;;;;;;;;;;;;;;;;;;351446;28;932;-63
2022/10/17 01:10:42;;;;;;;;;;;;;;;;;;351205;28;1522;-63
2022/10/17 01:10:59;;;;;;;;;;;;;;;;;;351378;28;1884;-63
2022/10/17 01:11:10;;;;;;;;;;;;;;;;;;351437;28;990;-63
2022/10/17 01:11:23;;;;;;;;;;;;;;;;;;351439;28;1038;-63
2022/10/17 01:11:45;;;;;;;;;;;;;;;;;;351208;28;1543;-63
2022/10/17 01:12:02;;;;;;;;;;;;;;;;;;350062;28;994;-63
2022/10/17 01:12:24;;;;;;;;;;;;;;;;;;350015;28;821;-63
2022/10/17 01:12:47;;;;;;;;;;;;;;;;;;350471;28;1624;-64
2022/10/17 01:13:11;;;;;;;;;;;;;;;;;;350050;28;1011;-63
2022/10/17 01:13:32;;;;;;;;;;;;;;;;;;350001;28;975;-64
2022/10/17 01:13:59;;;;;;;;;;;;;;;;;;350025;28;912;-64
2022/10/17 01:14:17;;;;;;;;;;;;;;;;;;349962;28;1007;-63
2022/10/17 01:14:46;;;;;;;;;;;;;;;;;;350026;28;996;-63
2022/10/17 01:15:01;;;;;;;;;;;;;;;;;;349997;28;952;-63
2022/10/17 01:15:32;;;;;;;;;;;;;;;;;;350027;28;992;-64
2022/10/17 01:15:51;;;;;;;;;;;;;;;;;;350041;28;972;-63
2022/10/17 01:16:08;;;;;;;;;;;;;;;;;;350079;28;924;-63
2022/10/17 01:16:18;;;;;;;;;;;;;;;;;;349996;28;944;-64
2022/10/17 01:16:54;;;;;;;;;;;;;;;;;;350046;28;913;-63
2022/10/17 01:17:14;;;;;;;;;;;;;;;;;;346810;28;1014;-67
2022/10/17 01:17:39;;;;;;;;;;;;;;;;;;349968;28;921;-64
2022/10/17 01:18:02;;;;;;;;;;;;;;;;;;349992;28;991;-63
2022/10/17 01:18:37;;;;;;;;;;;;;;;;;;350002;28;1754;-63
2022/10/17 01:18:50;;;;;;;;;;;;;;;;;;350047;28;837;-63
2022/10/17 01:19:03;;;;;;;;;;;;;;;;;;350013;28;920;-63
2022/10/17 01:19:19;;;;;;;;;;;;;;;;;;350022;28;920;-63
2022/10/17 01:19:29;;;;;;;;;;;;;;;;;;349933;28;1906;-64
2022/10/17 01:19:49;;;;;;;;;;;;;;;;;;350472;28;1604;-63
2022/10/17 01:20:14;;;;;;;;;;;;;;;;;;350004;28;861;-64
2022/10/17 01:20:43;;;;;;;;;;;;;;;;;;349968;28;917;-64
2022/10/17 01:21:06;;;;;;;;;;;;;;;;;;349959;28;742;-64
2022/10/17 01:21:16;;;;;;;;;;;;;;;;;;349927;28;1019;-63
2022/10/17 01:21:36;;;;;;;;;;;;;;;;;;350006;28;869;-63
2022/10/17 01:22:00;;;;;;;;;;;;;;;;;;350049;28;774;-63
2022/10/17 01:22:16;;;;;;;;;;;;;;;;;;349962;28;999;-63
2022/10/17 01:22:33;;;;;;;;;;;;;;;;;;350110;28;1780;-63
2022/10/17 01:22:46;;;;;;;;;;;;;;;;;;350595;28;1848;-63
2022/10/17 01:23:15;;;;;;;;;;;;;;;;;;350171;28;2038;-64
2022/10/17 01:23:34;;;;;;;;;;;;;;;;;;350003;28;892;-63
2022/10/17 01:23:57;;;;;;;;;;;;;;;;;;349964;28;953;-64
2022/10/17 01:24:26;;;;;;;;;;;;;;;;;;349994;28;865;-64
2022/10/17 01:24:36;;;;;;;;;;;;;;;;;;351299;28;1848;-63
2022/10/17 01:24:54;;;;;;;;;;;;;;;;;;349716;28;1589;-63